Time;durP1;ratioP1;P1;durP2;ratioP2;P2;SDS_P1;SDS_P2;PMS_P1;PMS_P2;Temp;Humidity;BMP_temperature;BMP_pressure;BME280_temperature;BME280_humidity;BME280_pressure;Samples;Min_cycle;Max_cycle;Signal;HPM_P1;HPM_P2
2022/07/29 00:02:28;;;;;;;4.57;0.88;;;16.50;99.90;;;;;;4914663;29;20074;-80
2022/07/29 00:05:14;;;;;;;3.05;0.60;;;16.50;99.90;;;;;;4912796;29;20135;-81
2022/07/29 00:08:03;;;;;;;6.47;1.50;;;16.50;99.90;;;;;;4913782;29;20067;-80
2022/07/29 00:10:49;;;;;;;3.80;0.88;;;16.50;99.90;;;;;;4914727;29;20091;-78
2022/07/29 00:13:36;;;;;;;4.60;1.00;;;16.60;99.90;;;;;;4914355;29;20056;-78
2022/07/29 00:16:22;;;;;;;4.63;0.80;;;16.60;99.90;;;;;;4898157;29;20437;-79
2022/07/29 00:19:09;;;;;;;3.08;0.95;;;16.60;99.90;;;;;;4914503;29;20051;-79
2022/07/29 00:21:55;;;;;;;1.75;0.63;;;16.60;99.90;;;;;;4915370;29;20055;-78
2022/07/29 00:24:41;;;;;;;4.43;0.90;;;16.60;99.90;;;;;;4917188;29;20508;-79
2022/07/29 00:27:28;;;;;;;3.33;0.70;;;16.60;99.90;;;;;;4921253;29;20048;-79
2022/07/29 00:30:14;;;;;;;2.13;0.80;;;16.60;99.90;;;;;;4898069;29;20107;-80
2022/07/29 00:33:00;;;;;;;4.80;1.00;;;16.60;99.90;;;;;;4914507;29;20517;-80
2022/07/29 00:35:47;;;;;;;4.97;1.00;;;16.60;99.90;;;;;;4914342;29;20052;-81
2022/07/29 00:38:33;;;;;;;3.22;0.90;;;16.60;99.90;;;;;;4913571;29;20063;-77
2022/07/29 00:41:20;;;;;;;2.72;0.95;;;16.60;99.90;;;;;;4914807;29;20060;-80
2022/07/29 00:44:06;;;;;;;2.00;0.77;;;16.60;99.90;;;;;;4913758;29;20119;-77
2022/07/29 00:46:52;;;;;;;5.53;1.10;;;16.60;99.90;;;;;;4913493;29;20095;-78
2022/07/29 00:49:40;;;;;;;3.35;0.90;;;16.60;99.90;;;;;;4915097;28;20505;-80
2022/07/29 00:52:27;;;;;;;4.00;1.00;;;16.60;99.90;;;;;;4914144;29;20052;-80
2022/07/29 00:55:15;;;;;;;3.58;0.80;;;16.60;99.90;;;;;;4913890;29;20437;-79
2022/07/29 00:58:03;;;;;;;2.80;0.90;;;16.60;99.90;;;;;;4914065;29;20560;-80
2022/07/29 01:00:49;;;;;;;6.07;1.50;;;16.60;99.90;;;;;;4917287;29;20044;-78
2022/07/29 01:03:35;;;;;;;5.72;1.00;;;16.60;99.90;;;;;;4917892;29;20063;-79
2022/07/29 01:06:22;;;;;;;7.55;1.05;;;16.60;99.90;;;;;;4918598;29;20055;-80
2022/07/29 01:09:09;;;;;;;6.47;1.15;;;16.60;99.90;;;;;;4904907;29;20083;-80
2022/07/29 01:11:59;;;;;;;3.80;0.88;;;16.60;99.90;;;;;;4917457;29;20060;-80
2022/07/29 01:14:47;;;;;;;8.55;1.65;;;16.60;99.90;;;;;;4917279;29;20071;-79
2022/07/29 01:18:03;;;;;;;4.20;1.40;;;16.60;99.90;;;;;;4918099;29;20122;-80
2022/07/29 01:21:08;;;;;;;5.82;1.02;;;16.60;99.90;;;;;;4917714;29;20040;-80
2022/07/29 01:24:25;;;;;;;3.77;1.20;;;16.60;99.90;;;;;;4919023;29;20044;-80
2022/07/29 01:27:48;;;;;;;4.80;1.23;;;16.60;99.90;;;;;;4918845;29;20048;-77
2022/07/29 01:30:36;;;;;;;2.60;0.93;;;16.60;99.90;;;;;;4921944;29;20056;-79
2022/07/29 01:36:46;;;;;;;5.70;1.25;;;16.60;99.90;;;;;;4900687;29;20056;-76
2022/07/29 01:39:36;;;;;;;4.60;1.00;;;16.60;99.90;;;;;;4916048;29;20139;-83
2022/07/29 01:42:41;;;;;;;6.28;1.23;;;16.60;99.90;;;;;;4916982;29;20461;-79
2022/07/29 01:45:47;;;;;;;5.95;1.10;;;16.60;99.90;;;;;;4916410;29;20056;-79
2022/07/29 01:48:40;;;;;;;3.72;1.08;;;16.60;99.90;;;;;;4916440;29;20429;-77
2022/07/29 01:51:32;;;;;;;6.00;1.40;;;16.60;99.90;;;;;;4917667;29;20051;-78
2022/07/29 01:54:28;;;;;;;3.83;1.05;;;16.50;99.90;;;;;;4916929;29;20059;-77
2022/07/29 01:57:18;;;;;;;3.88;1.05;;;16.50;99.90;;;;;;4917078;29;20063;-79
2022/07/29 02:00:05;;;;;;;2.10;0.80;;;16.50;99.90;;;;;;4916504;29;20075;-79
2022/07/29 02:02:54;;;;;;;4.70;1.08;;;16.40;99.90;;;;;;4916591;29;20053;-77
2022/07/29 02:05:42;;;;;;;5.63;1.23;;;16.40;99.90;;;;;;4915308;29;20051;-78
2022/07/29 02:08:30;;;;;;;22.98;2.60;;;16.40;99.90;;;;;;4916866;29;20048;-77
2022/07/29 02:11:16;;;;;;;6.65;1.10;;;16.40;99.90;;;;;;4916882;29;20385;-78
2022/07/29 02:14:04;;;;;;;4.75;0.80;;;16.40;99.90;;;;;;4916578;29;20161;-76
2022/07/29 02:16:54;;;;;;;5.95;0.98;;;16.30;99.90;;;;;;4915902;29;20048;-76
2022/07/29 02:19:42;;;;;;;6.40;1.00;;;16.40;99.90;;;;;;4900127;29;20052;-77
2022/07/29 02:22:33;;;;;;;6.10;1.42;;;16.30;99.90;;;;;;4900289;29;20544;-81
2022/07/29 02:25:22;;;;;;;5.18;1.35;;;16.30;99.90;;;;;;4900569;29;20484;-79
2022/07/29 02:28:08;;;;;;;4.45;1.35;;;16.30;99.90;;;;;;4916804;29;20143;-77
2022/07/29 02:31:03;;;;;;;9.10;1.10;;;16.30;99.90;;;;;;4915751;29;20059;-76
2022/07/29 02:33:50;;;;;;;3.50;1.00;;;16.30;99.90;;;;;;4916590;29;20433;-78
2022/07/29 02:36:37;;;;;;;6.00;1.05;;;16.30;99.90;;;;;;4916343;29;20048;-77
2022/07/29 02:39:26;;;;;;;5.03;1.10;;;16.30;99.90;;;;;;4915410;29;20155;-77
2022/07/29 02:42:15;;;;;;;6.03;1.10;;;16.30;99.90;;;;;;4914723;29;20648;-78
2022/07/29 02:45:02;;;;;;;7.47;1.25;;;16.30;99.90;;;;;;4915994;29;20518;-78
2022/07/29 02:47:50;;;;;;;4.18;0.88;;;16.30;99.90;;;;;;4898666;29;20472;-77
2022/07/29 02:50:46;;;;;;;5.45;1.13;;;16.30;99.90;;;;;;4915669;29;20051;-79
2022/07/29 02:53:34;;;;;;;4.78;0.95;;;16.40;99.90;;;;;;4914850;29;20148;-79
2022/07/29 02:56:25;;;;;;;5.60;1.20;;;16.40;99.90;;;;;;4916620;29;20060;-79
2022/07/29 02:59:13;;;;;;;5.57;0.88;;;16.40;99.90;;;;;;4915582;29;20055;-78
2022/07/29 03:02:02;;;;;;;5.25;1.25;;;16.40;99.90;;;;;;4918241;29;20056;-78
2022/07/29 03:04:49;;;;;;;2.95;1.00;;;16.40;99.90;;;;;;4921223;29;20135;-78
2022/07/29 03:07:37;;;;;;;3.60;0.93;;;16.40;99.90;;;;;;4915665;29;20052;-78
2022/07/29 03:10:26;;;;;;;4.43;1.10;;;16.40;99.90;;;;;;4915812;28;20062;-78
2022/07/29 03:13:13;;;;;;;5.28;1.00;;;16.40;99.90;;;;;;4915782;29;20076;-80
2022/07/29 03:16:00;;;;;;;6.45;1.70;;;16.40;99.90;;;;;;4915220;29;20115;-79
2022/07/29 03:18:47;;;;;;;3.95;1.00;;;16.40;99.90;;;;;;4915222;28;20052;-76
2022/07/29 03:21:34;;;;;;;3.70;1.25;;;16.40;99.90;;;;;;4915136;29;20120;-80
2022/07/29 03:24:33;;;;;;;3.35;1.00;;;16.40;99.90;;;;;;4915357;29;20080;-79
2022/07/29 03:27:19;;;;;;;3.45;1.10;;;16.40;99.90;;;;;;4913716;29;20382;-77
2022/07/29 03:30:08;;;;;;;2.60;0.98;;;16.40;99.90;;;;;;4914419;29;20060;-78
2022/07/29 03:32:54;;;;;;;3.17;1.00;;;16.40;99.90;;;;;;4914668;29;20056;-77
2022/07/29 03:35:40;;;;;;;4.78;1.25;;;16.30;99.90;;;;;;4915315;29;20096;-76
2022/07/29 03:38:29;;;;;;;2.67;0.98;;;16.30;99.90;;;;;;4919101;29;20115;-78
2022/07/29 03:41:18;;;;;;;4.32;1.10;;;16.30;99.90;;;;;;4919052;29;20059;-78
2022/07/29 03:44:06;;;;;;;6.70;1.00;;;16.30;99.90;;;;;;4917741;29;20094;-77
2022/07/29 03:46:55;;;;;;;5.25;1.80;;;16.30;99.90;;;;;;4915010;29;20083;-76
2022/07/29 03:49:43;;;;;;;4.43;1.02;;;16.30;99.90;;;;;;4914857;29;20070;-78
2022/07/29 03:52:30;;;;;;;5.78;1.05;;;16.20;99.90;;;;;;4914581;29;20132;-78
2022/07/29 03:55:17;;;;;;;4.28;0.90;;;16.20;99.90;;;;;;4913743;29;20056;-76
2022/07/29 03:58:04;;;;;;;3.55;1.10;;;16.30;99.90;;;;;;4913970;29;20441;-79
2022/07/29 04:00:50;;;;;;;3.72;0.90;;;16.20;99.90;;;;;;4914325;29;20048;-76
2022/07/29 04:03:36;;;;;;;7.88;1.20;;;16.20;99.90;;;;;;4913432;29;20052;-77
2022/07/29 04:06:23;;;;;;;6.57;1.90;;;16.20;99.90;;;;;;4914068;29;20584;-78
2022/07/29 04:09:10;;;;;;;4.07;1.17;;;16.20;99.90;;;;;;4914467;29;20055;-79
2022/07/29 04:11:56;;;;;;;5.63;1.42;;;16.20;99.90;;;;;;4913560;29;20060;-77
2022/07/29 04:14:42;;;;;;;6.53;1.50;;;16.20;99.90;;;;;;4920021;29;20128;-79
2022/07/29 04:17:28;;;;;;;2.25;1.00;;;16.20;99.90;;;;;;4920056;29;20051;-77
2022/07/29 04:20:14;;;;;;;4.68;1.20;;;16.20;99.90;;;;;;4913490;29;20151;-76
2022/07/29 04:23:01;;;;;;;4.35;1.20;;;16.20;99.90;;;;;;4913805;29;20060;-79
2022/07/29 04:25:47;;;;;;;4.53;1.10;;;16.20;99.90;;;;;;4914811;29;20075;-78
2022/07/29 04:28:33;;;;;;;5.97;1.40;;;16.20;99.90;;;;;;4914630;29;20135;-77
2022/07/29 04:31:19;;;;;;;6.97;1.60;;;16.20;99.90;;;;;;4913772;29;20789;-77
2022/07/29 04:34:06;;;;;;;7.28;1.42;;;16.20;99.90;;;;;;4916548;29;20587;-77
2022/07/29 04:36:52;;;;;;;3.80;1.10;;;16.20;99.90;;;;;;4917810;29;20444;-80
2022/07/29 04:39:38;;;;;;;6.95;1.73;;;16.30;99.90;;;;;;4916911;29;20058;-78
2022/07/29 04:42:24;;;;;;;13.77;2.15;;;16.30;99.90;;;;;;4918647;29;20055;-77
2022/07/29 04:45:10;;;;;;;4.97;1.52;;;16.30;99.90;;;;;;4918593;29;20081;-81
2022/07/29 04:47:57;;;;;;;4.95;1.10;;;16.30;99.90;;;;;;4917994;29;20052;-78
2022/07/29 04:50:44;;;;;;;6.78;1.33;;;16.30;99.90;;;;;;4919068;29;20047;-78
2022/07/29 04:53:30;;;;;;;5.57;1.10;;;16.30;99.90;;;;;;4917232;29;20048;-81
2022/07/29 04:56:16;;;;;;;8.82;1.60;;;16.30;99.90;;;;;;4916930;29;20146;-79
2022/07/29 04:59:02;;;;;;;8.10;1.30;;;16.30;99.90;;;;;;4916948;29;20052;-80
2022/07/29 05:01:48;;;;;;;8.77;1.20;;;16.40;99.90;;;;;;4917423;29;20460;-81
2022/07/29 05:04:34;;;;;;;9.52;1.48;;;16.40;99.90;;;;;;4916628;29;20064;-82
2022/07/29 05:07:21;;;;;;;6.25;1.48;;;16.40;99.90;;;;;;4918483;29;20481;-80
2022/07/29 05:10:07;;;;;;;7.25;1.52;;;16.40;99.90;;;;;;4916410;29;20136;-79
2022/07/29 05:12:54;;;;;;;4.28;1.40;;;16.40;99.90;;;;;;4918314;29;20107;-80
2022/07/29 05:15:40;;;;;;;5.95;1.42;;;16.50;99.90;;;;;;4917687;29;20059;-80
2022/07/29 05:18:26;;;;;;;8.02;1.40;;;16.60;99.90;;;;;;4917734;29;20056;-78
2022/07/29 05:21:12;;;;;;;5.03;2.17;;;16.60;99.90;;;;;;4917386;29;20048;-79
2022/07/29 05:23:58;;;;;;;4.95;1.40;;;16.60;99.90;;;;;;4917202;29;20048;-80
2022/07/29 05:26:44;;;;;;;6.32;1.67;;;16.70;99.90;;;;;;4916746;29;20066;-80
2022/07/29 05:29:30;;;;;;;3.50;1.38;;;16.70;99.90;;;;;;4916540;29;20104;-80
2022/07/29 05:32:17;;;;;;;3.33;1.20;;;16.80;99.90;;;;;;4916182;29;20539;-79
2022/07/29 05:35:03;;;;;;;2.90;1.20;;;16.80;99.90;;;;;;4917049;29;20052;-80
2022/07/29 05:37:50;;;;;;;6.93;1.17;;;16.90;99.90;;;;;;4917897;29;20048;-81
2022/07/29 05:40:36;;;;;;;6.43;1.38;;;16.90;99.90;;;;;;4917491;29;20052;-77
2022/07/29 05:43:22;;;;;;;6.10;1.35;;;17.00;99.90;;;;;;4917615;29;20099;-78
2022/07/29 05:46:09;;;;;;;5.20;1.38;;;17.00;99.90;;;;;;4917197;29;20048;-78
2022/07/29 05:48:55;;;;;;;10.25;1.92;;;17.10;99.90;;;;;;4916178;29;20091;-79
2022/07/29 05:51:41;;;;;;;6.18;1.58;;;17.10;99.90;;;;;;4917785;29;20500;-78
2022/07/29 05:54:27;;;;;;;4.75;1.20;;;17.20;99.90;;;;;;4916759;29;20131;-80
2022/07/29 05:57:21;;;;;;;6.43;1.80;;;17.20;99.90;;;;;;4916339;29;20087;-80
2022/07/29 06:00:08;;;;;;;8.02;1.50;;;17.30;99.90;;;;;;4918417;29;20131;-81
2022/07/29 06:02:54;;;;;;;4.00;1.13;;;17.30;99.90;;;;;;4915569;29;20052;-80
2022/07/29 06:05:40;;;;;;;6.60;1.25;;;17.40;99.90;;;;;;4916811;29;20056;-80
2022/07/29 06:08:26;;;;;;;9.15;1.77;;;17.50;99.90;;;;;;4900849;29;20055;-78
2022/07/29 06:11:13;;;;;;;6.32;1.48;;;17.60;99.90;;;;;;4916924;29;20547;-77
2022/07/29 06:13:59;;;;;;;6.45;1.10;;;17.70;99.90;;;;;;4916349;29;20460;-81
2022/07/29 06:16:46;;;;;;;9.05;1.40;;;17.80;99.90;;;;;;4916092;29;20134;-78
2022/07/29 06:19:35;;;;;;;4.65;1.33;;;17.90;99.90;;;;;;4916167;29;20059;-76
2022/07/29 06:22:21;;;;;;;6.55;1.15;;;18.00;99.90;;;;;;4915678;29;20471;-77
2022/07/29 06:25:07;;;;;;;4.80;1.27;;;18.10;99.90;;;;;;4915037;29;20163;-78
2022/07/29 06:27:54;;;;;;;6.15;1.20;;;18.20;99.90;;;;;;4917689;29;20083;-79
2022/07/29 06:30:40;;;;;;;6.38;1.30;;;18.30;99.90;;;;;;4916616;29;20138;-78
2022/07/29 06:33:26;;;;;;;7.38;1.67;;;18.40;99.90;;;;;;4916820;29;20107;-79
2022/07/29 06:36:12;;;;;;;7.32;1.40;;;18.40;99.90;;;;;;4917407;29;20063;-77
2022/07/29 06:38:58;;;;;;;3.50;1.33;;;18.60;99.90;;;;;;4916627;29;20408;-79
2022/07/29 06:41:50;;;;;;;7.00;1.40;;;18.60;99.90;;;;;;4919762;29;20508;-81
2022/07/29 06:44:36;;;;;;;6.93;1.63;;;18.70;99.90;;;;;;4917215;29;20048;-82
2022/07/29 06:47:22;;;;;;;6.03;1.42;;;18.80;99.90;;;;;;4914554;29;20064;-78
2022/07/29 06:50:12;;;;;;;8.48;1.70;;;19.00;99.90;;;;;;4915376;29;20079;-76
2022/07/29 06:52:58;;;;;;;5.68;1.25;;;19.10;99.90;;;;;;4915143;29;20127;-80
2022/07/29 06:55:44;;;;;;;7.82;1.20;;;19.20;99.90;;;;;;4915927;29;20058;-79
2022/07/29 06:58:31;;;;;;;5.75;1.48;;;19.20;99.90;;;;;;4914929;29;20055;-77
2022/07/29 07:01:17;;;;;;;7.00;1.42;;;19.10;99.90;;;;;;4899346;29;20111;-78
2022/07/29 07:04:03;;;;;;;6.18;1.40;;;19.10;99.90;;;;;;4915436;29;20048;-77
2022/07/29 07:06:49;;;;;;;8.98;1.85;;;19.10;99.90;;;;;;4915551;29;20139;-80
2022/07/29 07:09:35;;;;;;;4.40;1.10;;;19.10;99.90;;;;;;4921053;29;20067;-78
2022/07/29 07:12:22;;;;;;;7.97;1.30;;;19.10;99.90;;;;;;4919631;29;20060;-80
2022/07/29 07:15:08;;;;;;;3.97;1.48;;;19.10;99.90;;;;;;4902845;29;20056;-79
2022/07/29 07:17:55;;;;;;;12.68;1.92;;;19.00;99.90;;;;;;4915914;29;20087;-78
2022/07/29 07:20:42;;;;;;;6.85;1.00;;;19.00;99.90;;;;;;4915320;29;20088;-78
2022/07/29 07:23:28;;;;;;;10.00;1.77;;;19.10;99.90;;;;;;4914377;29;20051;-78
2022/07/29 07:26:14;;;;;;;6.68;1.08;;;19.10;99.90;;;;;;4915153;29;20052;-75
2022/07/29 07:29:00;;;;;;;6.13;1.33;;;19.20;99.90;;;;;;4914344;29;20527;-79
2022/07/29 07:31:47;;;;;;;6.55;1.40;;;19.20;99.90;;;;;;4914536;29;20080;-80
2022/07/29 07:34:33;;;;;;;6.20;1.48;;;19.20;99.90;;;;;;4914785;29;20055;-78
2022/07/29 07:37:20;;;;;;;8.00;1.58;;;19.20;99.90;;;;;;4914099;29;20185;-78
2022/07/29 07:40:08;;;;;;;5.43;1.40;;;19.30;99.90;;;;;;4915357;29;20609;-75
2022/07/29 07:42:54;;;;;;;6.70;1.40;;;19.40;99.90;;;;;;4915631;29;20397;-80
2022/07/29 07:45:41;;;;;;;4.93;1.58;;;19.50;99.90;;;;;;4918537;29;20055;-81
2022/07/29 07:48:27;;;;;;;7.97;1.98;;;19.50;99.90;;;;;;4924002;29;20115;-80
2022/07/29 07:51:13;;;;;;;8.60;2.28;;;19.60;99.90;;;;;;4918984;29;20052;-80
2022/07/29 07:54:00;;;;;;;5.20;1.15;;;19.70;99.90;;;;;;4899601;29;20047;-81
2022/07/29 07:56:50;;;;;;;4.13;1.30;;;19.70;99.90;;;;;;4914908;29;20066;-80
2022/07/29 07:59:36;;;;;;;8.18;1.60;;;19.80;99.90;;;;;;4914012;29;20512;-78
2022/07/29 08:02:22;;;;;;;3.63;1.38;;;19.80;99.90;;;;;;4914415;29;20052;-80
2022/07/29 08:05:09;;;;;;;4.15;1.30;;;19.90;99.90;;;;;;4914967;29;20055;-79
2022/07/29 08:07:56;;;;;;;8.57;1.50;;;20.10;99.90;;;;;;4914069;29;20052;-79
2022/07/29 08:10:55;;;;;;;7.53;1.10;;;20.10;99.90;;;;;;4914191;29;20052;-77
2022/07/29 08:13:42;;;;;;;5.72;1.70;;;20.30;99.90;;;;;;4915002;28;20048;-80
2022/07/29 08:16:29;;;;;;;5.15;1.30;;;20.40;99.90;;;;;;4918472;29;20052;-78
2022/07/29 08:19:15;;;;;;;5.10;1.45;;;20.40;99.90;;;;;;4914996;29;20052;-77
2022/07/29 08:22:01;;;;;;;4.00;1.20;;;20.70;99.90;;;;;;4913911;29;20052;-81
2022/07/29 08:24:52;;;;;;;7.97;1.50;;;20.90;99.90;;;;;;4914532;29;20056;-80
2022/07/29 08:27:38;;;;;;;10.00;1.88;;;21.30;99.90;;;;;;4914143;29;20060;-78
2022/07/29 08:30:24;;;;;;;7.35;1.80;;;21.40;99.90;;;;;;4914028;29;20532;-78
2022/07/29 08:33:11;;;;;;;6.88;1.70;;;21.60;99.90;;;;;;4914129;29;20414;-76
2022/07/29 08:35:57;;;;;;;6.32;1.60;;;21.60;99.50;;;;;;4913938;29;20064;-78
2022/07/29 08:38:44;;;;;;;6.60;1.42;;;21.60;99.30;;;;;;4913686;29;20056;-77
2022/07/29 08:41:31;;;;;;;4.35;1.58;;;21.70;99.20;;;;;;4897558;29;20147;-79
2022/07/29 08:44:21;;;;;;;4.97;1.60;;;21.60;99.20;;;;;;4914435;29;20083;-78
2022/07/29 08:47:07;;;;;;;7.03;1.70;;;21.50;98.90;;;;;;4916054;29;20051;-78
2022/07/29 08:49:53;;;;;;;6.25;1.90;;;21.40;99.10;;;;;;4915959;29;20058;-78
2022/07/29 08:52:41;;;;;;;5.30;1.83;;;21.60;99.20;;;;;;4914487;29;20044;-79
2022/07/29 08:55:27;;;;;;;4.80;1.50;;;21.80;99.20;;;;;;4912881;29;20048;-81
2022/07/29 08:58:15;;;;;;;4.50;1.42;;;21.90;98.90;;;;;;4914249;29;20044;-80
2022/07/29 09:01:02;;;;;;;6.05;1.50;;;22.00;98.60;;;;;;4914140;29;20048;-79
2022/07/29 09:03:49;;;;;;;11.23;2.10;;;22.30;98.70;;;;;;4913857;29;20131;-80
2022/07/29 09:06:39;;;;;;;9.93;1.77;;;22.40;98.10;;;;;;4913791;29;20513;-80
2022/07/29 09:09:25;;;;;;;9.18;1.55;;;22.30;98.00;;;;;;4913218;29;20143;-79
2022/07/29 09:12:12;;;;;;;8.30;1.60;;;22.30;98.00;;;;;;4915850;29;20404;-80
2022/07/29 09:14:58;;;;;;;5.20;1.50;;;22.20;97.80;;;;;;4918315;29;20159;-78
2022/07/29 09:17:47;;;;;;;9.18;1.95;;;22.20;97.70;;;;;;4914261;29;20120;-79
2022/07/29 09:23:41;;;;;;;7.07;1.58;;;22.10;97.70;;;;;;4917941;29;20044;-79
2022/07/29 09:26:31;;;;;;;6.30;1.70;;;22.30;97.90;;;;;;4918149;29;20067;-80
2022/07/29 09:29:24;;;;;;;8.32;1.90;;;22.40;97.80;;;;;;4917045;29;20524;-80
2022/07/29 09:32:10;;;;;;;6.53;1.85;;;22.70;97.80;;;;;;4917317;29;20127;-80
2022/07/29 09:35:20;;;;;;;4.72;1.67;;;23.00;97.50;;;;;;4917454;28;20485;-80
2022/07/29 09:38:13;;;;;;;5.43;1.98;;;23.20;97.30;;;;;;4917565;29;20094;-81
2022/07/29 09:41:02;;;;;;;7.65;2.03;;;23.20;96.70;;;;;;4916777;29;20052;-78
2022/07/29 09:43:58;;;;;;;7.80;1.80;;;23.30;97.10;;;;;;4916422;29;20063;-76
2022/07/29 09:47:05;;;;;;;8.63;1.60;;;23.30;96.80;;;;;;4914885;29;20135;-78
2022/07/29 09:49:59;;;;;;;9.90;2.03;;;23.40;97.00;;;;;;4918239;29;20131;-80
2022/07/29 09:52:50;;;;;;;7.18;2.40;;;23.60;96.70;;;;;;4916711;28;20062;-78
2022/07/29 09:55:50;;;;;;;6.25;1.73;;;23.60;96.60;;;;;;4917101;29;20048;-78
2022/07/29 09:58:36;;;;;;;8.38;1.77;;;23.60;96.30;;;;;;4916245;29;20060;-77
2022/07/29 10:01:28;;;;;;;8.27;2.13;;;23.60;96.60;;;;;;4915744;29;20468;-79
2022/07/29 10:04:15;;;;;;;6.32;1.52;;;23.60;96.50;;;;;;4916564;29;20058;-78
2022/07/29 10:07:04;;;;;;;5.43;1.80;;;23.50;96.60;;;;;;4917800;29;20047;-80
2022/07/29 10:09:56;;;;;;;8.70;1.75;;;23.40;96.40;;;;;;4918083;29;20055;-79
2022/07/29 10:12:52;;;;;;;9.25;2.00;;;23.20;96.20;;;;;;4917092;29;20048;-79
2022/07/29 10:15:43;;;;;;;7.47;2.40;;;23.20;96.10;;;;;;4917812;29;20502;-80
2022/07/29 10:18:29;;;;;;;5.32;1.60;;;23.20;96.30;;;;;;4916849;29;20692;-79
2022/07/29 10:21:16;;;;;;;4.60;1.77;;;23.20;96.20;;;;;;4916447;29;20064;-76
2022/07/29 10:24:03;;;;;;;7.75;2.30;;;23.10;96.40;;;;;;4917758;29;20148;-79
2022/07/29 10:26:50;;;;;;;8.82;2.05;;;23.10;96.20;;;;;;4917622;29;20082;-80
2022/07/29 10:29:36;;;;;;;5.82;1.80;;;23.10;96.40;;;;;;4915089;29;20056;-78
2022/07/29 10:32:29;;;;;;;5.93;1.58;;;23.10;96.50;;;;;;4914613;29;20052;-80
2022/07/29 10:35:38;;;;;;;6.13;1.98;;;23.00;96.50;;;;;;4915273;29;20055;-76
2022/07/29 10:38:53;;;;;;;7.97;1.92;;;22.90;96.70;;;;;;4916937;29;20044;-79
2022/07/29 10:42:01;;;;;;;8.20;2.05;;;22.90;96.80;;;;;;4915800;29;20056;-79
2022/07/29 10:44:48;;;;;;;7.72;2.08;;;22.80;96.70;;;;;;4915647;29;20147;-79
2022/07/29 10:47:35;;;;;;;6.70;1.80;;;22.70;96.80;;;;;;4915979;29;20138;-78
2022/07/29 10:50:21;;;;;;;10.48;2.00;;;22.80;97.10;;;;;;4915610;29;20063;-81
2022/07/29 10:53:07;;;;;;;7.80;2.35;;;22.70;97.10;;;;;;4899636;29;20060;-81
2022/07/29 10:55:53;;;;;;;5.70;2.00;;;22.60;97.00;;;;;;4916481;29;20048;-80
2022/07/29 10:58:40;;;;;;;5.95;1.70;;;22.70;97.00;;;;;;4917246;29;20147;-81
2022/07/29 11:01:31;;;;;;;8.45;1.75;;;22.70;97.00;;;;;;4919358;28;20126;-77
2022/07/29 11:04:43;;;;;;;7.65;1.85;;;22.80;97.00;;;;;;4915267;29;20685;-79
2022/07/29 11:07:29;;;;;;;9.05;1.80;;;23.00;96.70;;;;;;4920172;29;20048;-79
2022/07/29 11:10:15;;;;;;;9.00;2.00;;;23.10;96.70;;;;;;4918132;29;20107;-79
2022/07/29 11:13:02;;;;;;;7.40;2.08;;;23.10;96.40;;;;;;4915177;29;20048;-80
2022/07/29 11:15:56;;;;;;;10.05;1.95;;;23.30;96.60;;;;;;4915866;29;20052;-79
2022/07/29 11:19:10;;;;;;;6.37;2.10;;;23.50;96.60;;;;;;4914750;29;20114;-81
2022/07/29 11:21:57;;;;;;;7.38;2.20;;;23.60;96.30;;;;;;4914350;29;20169;-81
2022/07/29 11:24:43;;;;;;;7.95;2.42;;;23.60;96.40;;;;;;4915805;29;20048;-81
2022/07/29 11:27:39;;;;;;;11.32;2.33;;;23.90;96.50;;;;;;4914640;29;20083;-81
2022/07/29 11:30:50;;;;;;;4.57;1.58;;;24.10;96.50;;;;;;4914799;29;20487;-81
2022/07/29 11:33:36;;;;;;;9.75;2.15;;;24.40;96.20;;;;;;4900656;29;20104;-79
2022/07/29 11:36:22;;;;;;;7.78;2.53;;;24.40;96.10;;;;;;4914389;29;20508;-81
2022/07/29 11:39:36;;;;;;;8.20;2.00;;;24.30;95.70;;;;;;4915064;29;20055;-80
2022/07/29 11:42:25;;;;;;;7.88;2.17;;;24.30;95.50;;;;;;4914505;29;20063;-81
2022/07/29 11:45:23;;;;;;;7.80;2.40;;;24.20;96.20;;;;;;4915714;29;20424;-80
2022/07/29 11:48:16;;;;;;;10.68;2.45;;;24.10;96.50;;;;;;4914033;29;20060;-77
2022/07/29 11:51:10;;;;;;;10.73;2.10;;;24.20;96.50;;;;;;4915092;29;20079;-79
2022/07/29 11:53:58;;;;;;;5.88;1.80;;;24.20;96.90;;;;;;4914187;29;20111;-79
2022/07/29 11:56:46;;;;;;;9.27;2.13;;;24.20;97.00;;;;;;4916242;29;20044;-80
2022/07/29 11:59:42;;;;;;;7.05;2.17;;;24.40;97.20;;;;;;4916423;29;20048;-78
2022/07/29 12:02:43;;;;;;;11.65;3.33;;;24.40;97.00;;;;;;4914705;29;20420;-79
2022/07/29 12:05:39;;;;;;;9.80;2.30;;;24.40;96.70;;;;;;4914337;29;20143;-79
2022/07/29 12:08:27;;;;;;;7.65;2.50;;;24.20;96.70;;;;;;4914236;29;20059;-79
2022/07/29 12:11:18;;;;;;;14.35;2.80;;;24.00;96.90;;;;;;4913861;29;20091;-79
2022/07/29 12:14:04;;;;;;;5.93;2.05;;;23.90;97.00;;;;;;4914057;29;20496;-79
2022/07/29 12:16:50;;;;;;;8.68;2.58;;;23.70;97.50;;;;;;4915066;29;20055;-82
2022/07/29 12:19:45;;;;;;;7.25;2.20;;;23.50;97.90;;;;;;4918988;29;20079;-80
2022/07/29 12:22:37;;;;;;;10.10;2.20;;;23.20;98.40;;;;;;4914931;29;20119;-80
2022/07/29 12:25:24;;;;;;;6.47;1.92;;;23.10;98.80;;;;;;4914601;29;20392;-79
2022/07/29 12:28:15;;;;;;;9.88;2.20;;;23.10;99.20;;;;;;4913964;29;20492;-81
2022/07/29 12:31:02;;;;;;;7.65;2.83;;;23.00;99.50;;;;;;4915300;29;20148;-79
2022/07/29 12:33:54;;;;;;;9.40;2.03;;;23.00;99.70;;;;;;4913981;29;20040;-79
2022/07/29 12:36:42;;;;;;;7.65;1.90;;;23.00;99.90;;;;;;4914119;29;20052;-78
2022/07/29 12:39:28;;;;;;;9.13;1.83;;;23.10;99.90;;;;;;4915271;29;20044;-77
2022/07/29 12:42:18;;;;;;;9.70;2.17;;;23.10;99.80;;;;;;4915500;29;20559;-80
2022/07/29 12:45:05;;;;;;;8.82;2.10;;;23.10;99.80;;;;;;4913178;29;20614;-81
2022/07/29 12:47:52;;;;;;;8.90;2.17;;;23.20;99.80;;;;;;4913422;29;20080;-80
2022/07/29 12:50:58;;;;;;;6.82;2.60;;;23.10;99.90;;;;;;4913851;29;20048;-78
2022/07/29 12:54:03;;;;;;;7.68;2.05;;;23.20;99.90;;;;;;4913382;29;20048;-78
2022/07/29 12:56:59;;;;;;;7.85;2.08;;;23.40;99.90;;;;;;4917287;29;20519;-80
2022/07/29 12:59:58;;;;;;;15.40;2.40;;;23.40;99.90;;;;;;4916930;29;20068;-78
2022/07/29 13:02:53;;;;;;;11.27;2.80;;;23.60;99.90;;;;;;4919047;29;20134;-78
2022/07/29 13:05:42;;;;;;;10.90;2.28;;;23.80;99.90;;;;;;4919333;29;20048;-80
2022/07/29 13:08:28;;;;;;;11.15;2.15;;;24.10;99.40;;;;;;4917622;28;20087;-80
2022/07/29 13:11:35;;;;;;;9.20;2.10;;;24.50;98.90;;;;;;4917065;29;20401;-79
2022/07/29 13:14:33;;;;;;;9.45;2.92;;;25.10;98.20;;;;;;4917460;29;20408;-79
2022/07/29 13:17:27;;;;;;;5.95;2.55;;;25.40;97.80;;;;;;4916778;29;20500;-78
2022/07/29 13:20:14;;;;;;;8.38;2.40;;;25.70;97.30;;;;;;4916883;29;20052;-79
2022/07/29 13:23:00;;;;;;;9.15;2.17;;;26.20;96.70;;;;;;4917195;28;20059;-79
2022/07/29 13:25:46;;;;;;;6.88;2.45;;;26.40;96.20;;;;;;4917815;29;20055;-80
2022/07/29 13:28:33;;;;;;;9.57;2.65;;;26.60;95.90;;;;;;4901867;29;20618;-83
2022/07/29 13:31:20;;;;;;;11.15;2.70;;;26.80;95.30;;;;;;4918544;29;20048;-76
2022/07/29 13:34:06;;;;;;;10.15;2.97;;;27.10;95.00;;;;;;4915944;29;20056;-82
2022/07/29 13:36:53;;;;;;;7.28;2.08;;;27.20;94.70;;;;;;4917075;29;20064;-76
2022/07/29 13:39:39;;;;;;;12.55;3.00;;;27.60;94.70;;;;;;4919014;29;20048;-79
2022/07/29 13:42:26;;;;;;;9.13;2.53;;;27.50;94.50;;;;;;4921658;29;20056;-81
2022/07/29 13:45:13;;;;;;;7.82;2.03;;;27.80;94.40;;;;;;4917954;29;20134;-81
2022/07/29 13:47:59;;;;;;;12.80;2.83;;;28.10;93.90;;;;;;4919839;29;20079;-81
2022/07/29 13:50:46;;;;;;;7.55;1.90;;;28.10;93.30;;;;;;4916293;29;20060;-78
2022/07/29 13:53:32;;;;;;;8.48;2.15;;;28.40;93.10;;;;;;4916970;29;20059;-82
2022/07/29 13:56:19;;;;;;;6.78;2.00;;;29.10;92.90;;;;;;4920066;29;20588;-79
2022/07/29 13:59:05;;;;;;;6.95;2.20;;;30.30;91.80;;;;;;4906027;29;20431;-87
2022/07/29 14:01:51;;;;;;;8.75;1.85;;;30.70;90.60;;;;;;4917656;29;20052;-79
2022/07/29 14:04:37;;;;;;;6.75;2.50;;;30.30;90.20;;;;;;4916283;29;20055;-80
2022/07/29 14:07:24;;;;;;;11.18;2.60;;;29.90;90.40;;;;;;4917313;29;20123;-79
2022/07/29 14:10:10;;;;;;;7.80;1.90;;;29.50;90.50;;;;;;4915424;29;20048;-80
2022/07/29 14:12:56;;;;;;;8.73;2.25;;;29.00;90.90;;;;;;4917443;29;20044;-80
2022/07/29 14:15:43;;;;;;;8.15;2.03;;;28.60;90.90;;;;;;4916662;29;20131;-80
2022/07/29 14:18:29;;;;;;;9.88;2.30;;;28.10;91.40;;;;;;4914468;29;20048;-80
2022/07/29 14:21:15;;;;;;;6.10;2.05;;;27.90;91.80;;;;;;4915331;29;20171;-79
2022/07/29 14:24:02;;;;;;;6.55;1.98;;;27.40;92.30;;;;;;4916476;29;20405;-76
2022/07/29 14:26:48;;;;;;;6.00;1.73;;;27.00;92.60;;;;;;4915828;29;20059;-80
2022/07/29 14:29:35;;;;;;;7.65;1.70;;;26.80;93.00;;;;;;4917743;29;20075;-80
2022/07/29 14:32:21;;;;;;;8.27;2.25;;;26.50;93.40;;;;;;4915888;29;20492;-81
2022/07/29 14:35:07;;;;;;;5.88;2.22;;;26.40;93.70;;;;;;4900336;29;20056;-75
2022/07/29 14:37:54;;;;;;;10.50;2.50;;;26.30;93.90;;;;;;4916027;29;20060;-76
2022/07/29 14:40:40;;;;;;;9.57;2.22;;;26.30;94.20;;;;;;4918032;29;20051;-89
2022/07/29 14:43:27;;;;;;;6.50;2.05;;;26.10;94.60;;;;;;4903977;29;20055;-86
2022/07/29 14:46:13;;;;;;;6.88;1.65;;;25.80;95.00;;;;;;4921705;29;20120;-83